sensor_id;sensor_type;location;lat;lon;timestamp;pressure;altitude;pressure_sealevel;temperature;humidity
62800;BME280;48842;51.046;13.796;2023-04-08T00:01:24;100706.78;;;7.93;64.62
62800;BME280;48842;51.046;13.796;2023-04-08T00:03:49;100705.03;;;7.94;64.72
62800;BME280;48842;51.046;13.796;2023-04-08T00:06:15;100715.47;;;7.94;64.73
62800;BME280;48842;51.046;13.796;2023-04-08T00:08:40;100701.50;;;7.90;65.52
62800;BME280;48842;51.046;13.796;2023-04-08T00:11:05;100711.03;;;7.90;65.03
62800;BME280;48842;51.046;13.796;2023-04-08T00:13:31;100701.47;;;7.89;65.45
62800;BME280;48842;51.046;13.796;2023-04-08T00:15:56;100703.09;;;7.83;66.01
62800;BME280;48842;51.046;13.796;2023-04-08T00:18:22;100706.53;;;7.82;66.46
62800;BME280;48842;51.046;13.796;2023-04-08T00:20:47;100705.69;;;7.83;66.20
62800;BME280;48842;51.046;13.796;2023-04-08T00:23:12;100710.88;;;7.82;65.78
62800;BME280;48842;51.046;13.796;2023-04-08T00:25:37;100710.78;;;7.77;66.75
62800;BME280;48842;51.046;13.796;2023-04-08T00:28:02;100707.19;;;7.72;66.96
62800;BME280;48842;51.046;13.796;2023-04-08T00:30:28;100702.75;;;7.68;67.09
62800;BME280;48842;51.046;13.796;2023-04-08T00:32:54;100702.75;;;7.68;67.02
62800;BME280;48842;51.046;13.796;2023-04-08T00:35:19;100703.69;;;7.70;66.83
62800;BME280;48842;51.046;13.796;2023-04-08T00:37:44;100709.75;;;7.71;67.28
62800;BME280;48842;51.046;13.796;2023-04-08T00:40:10;100701.97;;;7.72;67.16
62800;BME280;48842;51.046;13.796;2023-04-08T00:42:35;100709.03;;;7.76;67.39
62800;BME280;48842;51.046;13.796;2023-04-08T00:45:00;100709.03;;;7.76;67.36
62800;BME280;48842;51.046;13.796;2023-04-08T00:47:26;100711.63;;;7.76;66.87
62800;BME280;48842;51.046;13.796;2023-04-08T00:49:51;100705.53;;;7.76;66.75
62800;BME280;48842;51.046;13.796;2023-04-08T00:52:16;100703.81;;;7.76;67.32
62800;BME280;48842;51.046;13.796;2023-04-08T00:54:41;100707.34;;;7.78;67.23
62800;BME280;48842;51.046;13.796;2023-04-08T00:57:07;100708.25;;;7.80;67.03
62800;BME280;48842;51.046;13.796;2023-04-08T00:59:33;100711.78;;;7.84;67.05
62800;BME280;48842;51.046;13.796;2023-04-08T01:02:25;100700.50;;;7.85;67.13
62800;BME280;48842;51.046;13.796;2023-04-08T01:05:06;100701.53;;;7.92;67.03
62800;BME280;48842;51.046;13.796;2023-04-08T01:07:36;100691.16;;;7.95;67.05
62800;BME280;48842;51.046;13.796;2023-04-08T01:10:05;100692.09;;;7.98;66.61
62800;BME280;48842;51.046;13.796;2023-04-08T01:12:36;100696.41;;;7.96;67.03
62800;BME280;48842;51.046;13.796;2023-04-08T01:15:05;100691.09;;;7.92;67.23
62800;BME280;48842;51.046;13.796;2023-04-08T01:17:33;100703.22;;;7.90;67.56
62800;BME280;48842;51.046;13.796;2023-04-08T01:20:01;100692.78;;;7.90;67.37
62800;BME280;48842;51.046;13.796;2023-04-08T01:25:14;100691.16;;;7.95;67.71
62800;BME280;48842;51.046;13.796;2023-04-08T01:27:41;100692.97;;;7.99;67.42
62800;BME280;48842;51.046;13.796;2023-04-08T01:30:08;100693.91;;;8.02;67.11
62800;BME280;48842;51.046;13.796;2023-04-08T01:32:35;100697.38;;;8.03;67.17
62800;BME280;48842;51.046;13.796;2023-04-08T01:35:01;100688.63;;;7.99;67.30
62800;BME280;48842;51.046;13.796;2023-04-08T01:37:27;100687.78;;;7.99;67.47
62800;BME280;48842;51.046;13.796;2023-04-08T01:39:54;100691.22;;;7.98;68.35
62800;BME280;48842;51.046;13.796;2023-04-08T01:42:19;100686.00;;;7.98;67.46
62800;BME280;48842;51.046;13.796;2023-04-08T01:44:46;100679.00;;;7.97;67.99
62800;BME280;48842;51.046;13.796;2023-04-08T01:47:13;100686.81;;;7.95;67.85
62800;BME280;48842;51.046;13.796;2023-04-08T01:49:39;100687.63;;;7.93;68.36
62800;BME280;48842;51.046;13.796;2023-04-08T01:52:06;100684.16;;;7.92;68.48
62800;BME280;48842;51.046;13.796;2023-04-08T01:54:33;100686.75;;;7.92;68.40
62800;BME280;48842;51.046;13.796;2023-04-08T01:57:03;100695.47;;;7.94;68.50
62800;BME280;48842;51.046;13.796;2023-04-08T01:59:34;100698.06;;;7.93;68.50
62800;BME280;48842;51.046;13.796;2023-04-08T02:02:01;100700.66;;;7.93;68.36
62800;BME280;48842;51.046;13.796;2023-04-08T02:04:29;100702.47;;;7.95;68.78
62800;BME280;48842;51.046;13.796;2023-04-08T02:06:55;100694.66;;;7.97;68.84
62800;BME280;48842;51.046;13.796;2023-04-08T02:09:20;100699.88;;;7.97;68.81
62800;BME280;48842;51.046;13.796;2023-04-08T02:11:45;100703.41;;;7.99;68.84
62800;BME280;48842;51.046;13.796;2023-04-08T02:14:11;100701.72;;;8.01;69.03
62800;BME280;48842;51.046;13.796;2023-04-08T02:16:43;100708.69;;;8.02;68.78
62800;BME280;48842;51.046;13.796;2023-04-08T02:19:18;100703.53;;;8.05;69.02
62800;BME280;48842;51.046;13.796;2023-04-08T02:21:49;100702.69;;;8.06;68.62
62800;BME280;48842;51.046;13.796;2023-04-08T02:24:16;100701.88;;;8.10;68.68
62800;BME280;48842;51.046;13.796;2023-04-08T02:26:43;100692.34;;;8.11;68.84
62800;BME280;48842;51.046;13.796;2023-04-08T02:29:11;100688.00;;;8.11;68.71
62800;BME280;48842;51.046;13.796;2023-04-08T02:31:40;100703.66;;;8.11;68.97
62800;BME280;48842;51.046;13.796;2023-04-08T02:34:07;100690.56;;;8.08;68.96
62800;BME280;48842;51.046;13.796;2023-04-08T02:36:33;100692.31;;;8.09;69.80
62800;BME280;48842;51.046;13.796;2023-04-08T02:38:59;100697.50;;;8.08;69.54
62800;BME280;48842;51.046;13.796;2023-04-08T02:41:27;100705.38;;;8.09;69.21
62800;BME280;48842;51.046;13.796;2023-04-08T02:43:53;100707.09;;;8.10;69.50
62800;BME280;48842;51.046;13.796;2023-04-08T02:46:19;100718.53;;;8.15;69.14
62800;BME280;48842;51.046;13.796;2023-04-08T02:48:44;100709.00;;;8.17;68.89
62800;BME280;48842;51.046;13.796;2023-04-08T02:51:09;100707.28;;;8.18;69.03
62800;BME280;48842;51.046;13.796;2023-04-08T02:53:35;100706.41;;;8.19;69.23
62800;BME280;48842;51.046;13.796;2023-04-08T02:56:00;100714.25;;;8.20;69.09
62800;BME280;48842;51.046;13.796;2023-04-08T02:58:25;100716.88;;;8.20;69.14
62800;BME280;48842;51.046;13.796;2023-04-08T03:00:51;100710.81;;;8.21;69.19
62800;BME280;48842;51.046;13.796;2023-04-08T03:03:16;100721.28;;;8.23;69.42
62800;BME280;48842;51.046;13.796;2023-04-08T03:05:41;100711.66;;;8.20;69.83
62800;BME280;48842;51.046;13.796;2023-04-08T03:08:06;100709.94;;;8.21;69.38
62800;BME280;48842;51.046;13.796;2023-04-08T03:10:32;100711.66;;;8.20;69.59
62800;BME280;48842;51.046;13.796;2023-04-08T03:12:57;100714.34;;;8.24;69.32
62800;BME280;48842;51.046;13.796;2023-04-08T03:15:22;100710.88;;;8.25;69.24
62800;BME280;48842;51.046;13.796;2023-04-08T03:17:47;100717.91;;;8.29;69.55
62800;BME280;48842;51.046;13.796;2023-04-08T03:20:13;100710.97;;;8.31;69.57
62800;BME280;48842;51.046;13.796;2023-04-08T03:22:38;100716.25;;;8.32;69.47
62800;BME280;48842;51.046;13.796;2023-04-08T03:25:03;100705.75;;;8.31;69.21
62800;BME280;48842;51.046;13.796;2023-04-08T03:27:29;100704.03;;;8.30;69.50
62800;BME280;48842;51.046;13.796;2023-04-08T03:29:54;100701.38;;;8.28;69.59
62800;BME280;48842;51.046;13.796;2023-04-08T03:32:21;100701.38;;;8.28;69.79
62800;BME280;48842;51.046;13.796;2023-04-08T03:34:47;100709.28;;;8.31;69.59
62800;BME280;48842;51.046;13.796;2023-04-08T03:37:15;100706.66;;;8.31;69.71
62800;BME280;48842;51.046;13.796;2023-04-08T03:39:40;100712.81;;;8.35;69.82
62800;BME280;48842;51.046;13.796;2023-04-08T03:42:05;100712.81;;;8.35;69.57
62800;BME280;48842;51.046;13.796;2023-04-08T03:44:30;100704.06;;;8.33;69.43
62800;BME280;48842;51.046;13.796;2023-04-08T03:46:56;100699.69;;;8.32;69.77
62800;BME280;48842;51.046;13.796;2023-04-08T03:49:21;100704.94;;;8.33;69.75
62800;BME280;48842;51.046;13.796;2023-04-08T03:51:46;100709.28;;;8.33;70.01
62800;BME280;48842;51.046;13.796;2023-04-08T03:54:11;100704.06;;;8.33;69.81
62800;BME280;48842;51.046;13.796;2023-04-08T03:56:36;100711.94;;;8.34;70.02
62800;BME280;48842;51.046;13.796;2023-04-08T03:59:02;100704.06;;;8.33;69.76
62800;BME280;48842;51.046;13.796;2023-04-08T04:01:27;100710.97;;;8.31;70.01
62800;BME280;48842;51.046;13.796;2023-04-08T04:03:54;100707.47;;;8.29;69.89
62800;BME280;48842;51.046;13.796;2023-04-08T04:06:19;100711.81;;;8.28;70.09
62800;BME280;48842;51.046;13.796;2023-04-08T04:08:44;100721.38;;;8.29;69.72
62800;BME280;48842;51.046;13.796;2023-04-08T04:11:10;100717.88;;;8.27;70.13
62800;BME280;48842;51.046;13.796;2023-04-08T04:13:35;100715.19;;;8.23;70.22
62800;BME280;48842;51.046;13.796;2023-04-08T04:16:00;100716.94;;;8.22;69.83
62800;BME280;48842;51.046;13.796;2023-04-08T04:18:26;100713.38;;;8.18;70.07
62800;BME280;48842;51.046;13.796;2023-04-08T04:20:51;100723.81;;;8.18;70.62
62800;BME280;48842;51.046;13.796;2023-04-08T04:23:16;100722.06;;;8.19;70.20
62800;BME280;48842;51.046;13.796;2023-04-08T04:25:41;100721.19;;;8.18;70.45
62800;BME280;48842;51.046;13.796;2023-04-08T04:28:07;100724.63;;;8.17;70.56
62800;BME280;48842;51.046;13.796;2023-04-08T04:30:36;100730.69;;;8.13;70.60
62800;BME280;48842;51.046;13.796;2023-04-08T04:33:01;100732.34;;;8.11;70.88
62800;BME280;48842;51.046;13.796;2023-04-08T04:35:26;100734.13;;;8.12;70.95
62800;BME280;48842;51.046;13.796;2023-04-08T04:37:51;100729.81;;;8.16;70.79
62800;BME280;48842;51.046;13.796;2023-04-08T04:40:17;100737.72;;;8.19;70.97
62800;BME280;48842;51.046;13.796;2023-04-08T04:42:42;100740.28;;;8.17;70.75
62800;BME280;48842;51.046;13.796;2023-04-08T04:45:08;100749.91;;;8.18;70.98
62800;BME280;48842;51.046;13.796;2023-04-08T04:47:34;100749.94;;;8.20;71.24
62800;BME280;48842;51.046;13.796;2023-04-08T04:49:59;100749.94;;;8.21;70.92
62800;BME280;48842;51.046;13.796;2023-04-08T04:52:24;100755.19;;;8.23;71.29
62800;BME280;48842;51.046;13.796;2023-04-08T04:54:50;100756.09;;;8.24;71.12
62800;BME280;48842;51.046;13.796;2023-04-08T04:57:15;100752.56;;;8.21;71.52
62800;BME280;48842;51.046;13.796;2023-04-08T04:59:40;100765.56;;;8.20;71.39
62800;BME280;48842;51.046;13.796;2023-04-08T05:02:05;100759.44;;;8.16;71.32
62800;BME280;48842;51.046;13.796;2023-04-08T05:04:31;100753.28;;;8.14;71.45
62800;BME280;48842;51.046;13.796;2023-04-08T05:06:58;100755.88;;;8.14;71.97
62800;BME280;48842;51.046;13.796;2023-04-08T05:09:23;100753.31;;;8.16;71.47
62800;BME280;48842;51.046;13.796;2023-04-08T05:11:48;100756.00;;;8.20;71.82
62800;BME280;48842;51.046;13.796;2023-04-08T05:14:13;100760.44;;;8.25;71.66
62800;BME280;48842;51.046;13.796;2023-04-08T05:16:39;100752.63;;;8.25;71.17
62800;BME280;48842;51.046;13.796;2023-04-08T05:19:04;100741.25;;;8.21;71.78
62800;BME280;48842;51.046;13.796;2023-04-08T05:21:30;100756.06;;;8.22;71.79
62800;BME280;48842;51.046;13.796;2023-04-08T05:23:56;100755.19;;;8.23;71.73
62800;BME280;48842;51.046;13.796;2023-04-08T05:26:22;100763.06;;;8.25;71.83
62800;BME280;48842;51.046;13.796;2023-04-08T05:28:48;100767.47;;;8.27;71.47
62800;BME280;48842;51.046;13.796;2023-04-08T05:31:17;100765.72;;;8.28;71.58
62800;BME280;48842;51.046;13.796;2023-04-08T05:33:42;100759.69;;;8.30;71.50
62800;BME280;48842;51.046;13.796;2023-04-08T05:36:09;100765.00;;;8.35;71.31
62800;BME280;48842;51.046;13.796;2023-04-08T05:38:35;100766.81;;;8.37;71.55
62800;BME280;48842;51.046;13.796;2023-04-08T05:41:00;100774.66;;;8.39;71.38
62800;BME280;48842;51.046;13.796;2023-04-08T05:43:25;100779.09;;;8.43;71.40
62800;BME280;48842;51.046;13.796;2023-04-08T05:45:51;100783.56;;;8.47;71.62
62800;BME280;48842;51.046;13.796;2023-04-08T05:48:16;100779.25;;;8.49;71.06
62800;BME280;48842;51.046;13.796;2023-04-08T05:50:41;100785.41;;;8.51;71.51
62800;BME280;48842;51.046;13.796;2023-04-08T05:53:08;100780.25;;;8.56;71.56
62800;BME280;48842;51.046;13.796;2023-04-08T05:55:33;100778.59;;;8.61;71.66
62800;BME280;48842;51.046;13.796;2023-04-08T05:57:58;100785.63;;;8.64;71.70
62800;BME280;48842;51.046;13.796;2023-04-08T06:00:24;100786.50;;;8.64;71.59
62800;BME280;48842;51.046;13.796;2023-04-08T06:02:50;100783.06;;;8.67;71.57
62800;BME280;48842;51.046;13.796;2023-04-08T06:05:16;100791.03;;;8.74;71.75
62800;BME280;48842;51.046;13.796;2023-04-08T06:07:41;100790.31;;;8.83;71.48
62800;BME280;48842;51.046;13.796;2023-04-08T06:10:07;100797.38;;;8.87;71.54
62800;BME280;48842;51.046;13.796;2023-04-08T06:12:34;100794.78;;;8.89;71.51
62800;BME280;48842;51.046;13.796;2023-04-08T06:15:00;100796.56;;;8.91;71.54
62800;BME280;48842;51.046;13.796;2023-04-08T06:17:25;100794.91;;;8.95;71.63
62800;BME280;48842;51.046;13.796;2023-04-08T06:19:50;100798.47;;;9.00;71.64
62800;BME280;48842;51.046;13.796;2023-04-08T06:22:16;100804.69;;;9.07;71.52
62800;BME280;48842;51.046;13.796;2023-04-08T06:24:41;100811.81;;;9.14;71.60
62800;BME280;48842;51.046;13.796;2023-04-08T06:27:07;100814.50;;;9.19;71.14
62800;BME280;48842;51.046;13.796;2023-04-08T06:29:33;100813.66;;;9.21;71.10
62800;BME280;48842;51.046;13.796;2023-04-08T06:31:58;100812.00;;;9.26;71.03
62800;BME280;48842;51.046;13.796;2023-04-08T06:34:23;100815.63;;;9.35;70.84
62800;BME280;48842;51.046;13.796;2023-04-08T06:36:48;100812.25;;;9.40;70.56
62800;BME280;48842;51.046;13.796;2023-04-08T06:39:14;100801.81;;;9.42;70.39
62800;BME280;48842;51.046;13.796;2023-04-08T06:41:41;100805.34;;;9.46;70.60
62800;BME280;48842;51.046;13.796;2023-04-08T06:44:06;100811.53;;;9.51;70.37
62800;BME280;48842;51.046;13.796;2023-04-08T06:46:31;100815.03;;;9.53;70.21
62800;BME280;48842;51.046;13.796;2023-04-08T06:48:56;100822.03;;;9.54;70.04
62800;BME280;48842;51.046;13.796;2023-04-08T06:51:22;100824.69;;;9.55;70.07
62800;BME280;48842;51.046;13.796;2023-04-08T06:53:47;100830.84;;;9.60;70.05
62800;BME280;48842;51.046;13.796;2023-04-08T06:56:13;100826.63;;;9.69;69.87
62800;BME280;48842;51.046;13.796;2023-04-08T06:58:38;100835.47;;;9.75;69.85
62800;BME280;48842;51.046;13.796;2023-04-08T07:01:03;100838.16;;;9.82;69.61
62800;BME280;48842;51.046;13.796;2023-04-08T07:03:28;100846.06;;;9.86;69.56
62800;BME280;48842;51.046;13.796;2023-04-08T07:05:54;100842.63;;;9.89;69.34
62800;BME280;48842;51.046;13.796;2023-04-08T07:08:19;100850.50;;;9.90;68.94
62800;BME280;48842;51.046;13.796;2023-04-08T07:10:44;100847.88;;;9.90;68.67
62800;BME280;48842;51.046;13.796;2023-04-08T07:13:10;100858.34;;;9.90;68.68
62800;BME280;48842;51.046;13.796;2023-04-08T07:15:35;100856.63;;;9.92;68.67
62800;BME280;48842;51.046;13.796;2023-04-08T07:18:01;100862.75;;;9.93;68.40
62800;BME280;48842;51.046;13.796;2023-04-08T07:20:26;100865.44;;;9.98;68.19
62800;BME280;48842;51.046;13.796;2023-04-08T07:22:52;100867.25;;;10.02;68.20
62800;BME280;48842;51.046;13.796;2023-04-08T07:25:17;100872.56;;;10.08;67.83
62800;BME280;48842;51.046;13.796;2023-04-08T07:27:42;100870.03;;;10.14;67.77
62800;BME280;48842;51.046;13.796;2023-04-08T07:30:08;100871.88;;;10.21;67.40
62800;BME280;48842;51.046;13.796;2023-04-08T07:32:33;100869.34;;;10.27;67.44
62800;BME280;48842;51.046;13.796;2023-04-08T07:34:59;100880.84;;;10.36;67.20
62800;BME280;48842;51.046;13.796;2023-04-08T07:37:26;100877.44;;;10.41;66.92
62800;BME280;48842;51.046;13.796;2023-04-08T07:39:51;100875.75;;;10.46;66.70
62800;BME280;48842;51.046;13.796;2023-04-08T07:42:17;100885.41;;;10.52;66.58
62800;BME280;48842;51.046;13.796;2023-04-08T07:44:46;100889.81;;;10.55;66.38
62800;BME280;48842;51.046;13.796;2023-04-08T07:47:12;100888.03;;;10.52;65.21
62800;BME280;48842;51.046;13.796;2023-04-08T07:49:37;100896.69;;;10.45;64.94
62800;BME280;48842;51.046;13.796;2023-04-08T07:52:03;100899.28;;;10.43;64.84
62800;BME280;48842;51.046;13.796;2023-04-08T07:54:32;100909.78;;;10.45;65.12
62800;BME280;48842;51.046;13.796;2023-04-08T07:57:00;100908.06;;;10.47;64.65
62800;BME280;48842;51.046;13.796;2023-04-08T07:59:27;100903.69;;;10.47;64.57
62800;BME280;48842;51.046;13.796;2023-04-08T08:01:52;100908.97;;;10.49;64.46
62800;BME280;48842;51.046;13.796;2023-04-08T08:04:17;100909.81;;;10.48;64.33
62800;BME280;48842;51.046;13.796;2023-04-08T08:06:43;100913.38;;;10.52;64.38
62800;BME280;48842;51.046;13.796;2023-04-08T08:09:08;100909.94;;;10.56;64.20
62800;BME280;48842;51.046;13.796;2023-04-08T08:11:33;100915.22;;;10.60;64.22
62800;BME280;48842;51.046;13.796;2023-04-08T08:13:58;100917.88;;;10.63;63.88
62800;BME280;48842;51.046;13.796;2023-04-08T08:16:27;100910.03;;;10.65;63.64
62800;BME280;48842;51.046;13.796;2023-04-08T08:18:52;100920.53;;;10.67;63.65
62800;BME280;48842;51.046;13.796;2023-04-08T08:21:18;100922.34;;;10.71;63.48
62800;BME280;48842;51.046;13.796;2023-04-08T08:23:43;100918.91;;;10.73;63.51
62800;BME280;48842;51.046;13.796;2023-04-08T08:26:09;100926.84;;;10.82;62.87
62800;BME280;48842;51.046;13.796;2023-04-08T08:28:34;100923.44;;;10.88;62.93
62800;BME280;48842;51.046;13.796;2023-04-08T08:31:00;100927.88;;;10.92;62.18
62800;BME280;48842;51.046;13.796;2023-04-08T08:33:26;100932.22;;;10.93;62.28
62800;BME280;48842;51.046;13.796;2023-04-08T08:35:51;100934.88;;;10.96;62.28
62800;BME280;48842;51.046;13.796;2023-04-08T08:38:17;100933.19;;;11.00;62.03
62800;BME280;48842;51.046;13.796;2023-04-08T08:40:43;100938.47;;;11.05;61.72
62800;BME280;48842;51.046;13.796;2023-04-08T08:43:09;100936.84;;;11.13;61.66
62800;BME280;48842;51.046;13.796;2023-04-08T08:45:38;100940.41;;;11.21;61.44
62800;BME280;48842;51.046;13.796;2023-04-08T08:48:04;100936.13;;;11.29;61.34
62800;BME280;48842;51.046;13.796;2023-04-08T08:50:30;100937.97;;;11.37;60.81
62800;BME280;48842;51.046;13.796;2023-04-08T08:52:55;100946.75;;;11.42;59.94
62800;BME280;48842;51.046;13.796;2023-04-08T08:55:20;100949.44;;;11.46;59.54
62800;BME280;48842;51.046;13.796;2023-04-08T08:57:49;100942.47;;;11.50;59.22
62800;BME280;48842;51.046;13.796;2023-04-08T09:00:15;100956.53;;;11.58;59.48
62800;BME280;48842;51.046;13.796;2023-04-08T09:02:41;100954.00;;;11.69;59.32
62800;BME280;48842;51.046;13.796;2023-04-08T09:05:06;100958.47;;;11.79;59.21
62800;BME280;48842;51.046;13.796;2023-04-08T09:07:35;100955.97;;;11.88;58.84
62800;BME280;48842;51.046;13.796;2023-04-08T09:10:00;100965.69;;;11.97;59.01
62800;BME280;48842;51.046;13.796;2023-04-08T09:12:26;100956.97;;;12.04;58.63
62800;BME280;48842;51.046;13.796;2023-04-08T09:17:32;100968.44;;;12.14;57.53
62800;BME280;48842;51.046;13.796;2023-04-08T09:20:05;100970.22;;;12.17;57.26
62800;BME280;48842;51.046;13.796;2023-04-08T09:22:33;100971.06;;;12.16;57.17
62800;BME280;48842;51.046;13.796;2023-04-08T09:24:59;100975.47;;;12.15;56.82
62800;BME280;48842;51.046;13.796;2023-04-08T09:27:34;100978.97;;;12.20;57.05
62800;BME280;48842;51.046;13.796;2023-04-08T09:30:13;100979.94;;;12.33;56.82
62800;BME280;48842;51.046;13.796;2023-04-08T09:32:53;100975.66;;;12.43;55.47
62800;BME280;48842;51.046;13.796;2023-04-08T09:35:19;100976.53;;;12.47;55.79
62800;BME280;48842;51.046;13.796;2023-04-08T09:37:45;100973.91;;;12.48;55.44
62800;BME280;48842;51.046;13.796;2023-04-08T09:40:10;100986.22;;;12.52;55.14
62800;BME280;48842;51.046;13.796;2023-04-08T09:42:40;100985.34;;;12.55;54.88
62800;BME280;48842;51.046;13.796;2023-04-08T09:45:09;100980.94;;;12.52;54.15
62800;BME280;48842;51.046;13.796;2023-04-08T09:47:51;100989.66;;;12.45;54.72
62800;BME280;48842;51.046;13.796;2023-04-08T09:50:23;100982.63;;;12.41;54.47
62800;BME280;48842;51.046;13.796;2023-04-08T09:52:52;100989.63;;;12.36;54.31
62800;BME280;48842;51.046;13.796;2023-04-08T09:55:21;100988.69;;;12.29;54.32
62800;BME280;48842;51.046;13.796;2023-04-08T09:58:04;100988.59;;;12.17;54.29
62800;BME280;48842;51.046;13.796;2023-04-08T10:00:39;100995.50;;;12.05;54.80
62800;BME280;48842;51.046;13.796;2023-04-08T10:03:26;100995.47;;;12.02;54.62
62800;BME280;48842;51.046;13.796;2023-04-08T10:05:54;101000.72;;;12.02;55.27
62800;BME280;48842;51.046;13.796;2023-04-08T10:08:21;100993.78;;;12.08;55.12
62800;BME280;48842;51.046;13.796;2023-04-08T10:10:47;100990.31;;;12.15;55.16
62800;BME280;48842;51.046;13.796;2023-04-08T10:13:13;100996.50;;;12.21;54.85
62800;BME280;48842;51.046;13.796;2023-04-08T10:15:39;100990.41;;;12.24;55.33
62800;BME280;48842;51.046;13.796;2023-04-08T10:30:47;101008.69;;;12.13;54.58
62800;BME280;48842;51.046;13.796;2023-04-08T10:35:58;101002.72;;;12.33;54.71
62800;BME280;48842;51.046;13.796;2023-04-08T10:38:24;101008.88;;;12.39;54.03
62800;BME280;48842;51.046;13.796;2023-04-08T10:40:49;101004.56;;;12.45;54.11
62800;BME280;48842;51.046;13.796;2023-04-08T10:43:15;101008.09;;;12.50;54.11
62800;BME280;48842;51.046;13.796;2023-04-08T10:45:41;101001.13;;;12.55;52.89
62800;BME280;48842;51.046;13.796;2023-04-08T10:48:18;101003.78;;;12.61;52.60
62800;BME280;48842;51.046;13.796;2023-04-08T10:50:59;101008.22;;;12.70;52.40
62800;BME280;48842;51.046;13.796;2023-04-08T10:53:29;100998.66;;;12.81;52.28
62800;BME280;48842;51.046;13.796;2023-04-08T10:58:34;101002.28;;;13.03;51.37
62800;BME280;48842;51.046;13.796;2023-04-08T11:01:06;101008.44;;;13.08;51.00
62800;BME280;48842;51.046;13.796;2023-04-08T11:03:32;101011.94;;;13.07;50.86
62800;BME280;48842;51.046;13.796;2023-04-08T11:05:59;101011.91;;;13.01;50.87
62800;BME280;48842;51.046;13.796;2023-04-08T11:08:30;101013.59;;;12.87;50.10
62800;BME280;48842;51.046;13.796;2023-04-08T11:10:57;101014.41;;;12.75;50.73
62800;BME280;48842;51.046;13.796;2023-04-08T11:13:22;101024.84;;;12.64;50.78
62800;BME280;48842;51.046;13.796;2023-04-08T11:15:48;101017.75;;;12.55;50.98
62800;BME280;48842;51.046;13.796;2023-04-08T11:18:14;101010.72;;;12.50;51.10
62800;BME280;48842;51.046;13.796;2023-04-08T11:20:42;101018.56;;;12.47;51.17
62800;BME280;48842;51.046;13.796;2023-04-08T11:23:12;101022.03;;;12.39;51.71
62800;BME280;48842;51.046;13.796;2023-04-08T11:25:39;101022.00;;;12.36;51.70
62800;BME280;48842;51.046;13.796;2023-04-08T11:28:05;101028.09;;;12.31;51.86
62800;BME280;48842;51.046;13.796;2023-04-08T11:30:31;101029.81;;;12.26;51.89
62800;BME280;48842;51.046;13.796;2023-04-08T11:32:57;101032.41;;;12.21;52.47
62800;BME280;48842;51.046;13.796;2023-04-08T11:35:22;101027.09;;;12.15;52.31
62800;BME280;48842;51.046;13.796;2023-04-08T11:37:47;101027.97;;;12.12;53.05
62800;BME280;48842;51.046;13.796;2023-04-08T11:40:19;101032.28;;;12.09;52.82
62800;BME280;48842;51.046;13.796;2023-04-08T11:42:44;101032.28;;;12.09;52.82
62800;BME280;48842;51.046;13.796;2023-04-08T11:45:11;101034.97;;;12.15;53.33
62800;BME280;48842;51.046;13.796;2023-04-08T11:47:36;101038.53;;;12.21;53.56
62800;BME280;48842;51.046;13.796;2023-04-08T11:50:02;101038.53;;;12.21;53.26
62800;BME280;48842;51.046;13.796;2023-04-08T11:52:47;101040.25;;;12.16;52.73
62800;BME280;48842;51.046;13.796;2023-04-08T11:55:22;101040.13;;;12.02;53.51
62800;BME280;48842;51.046;13.796;2023-04-08T11:57:48;101039.09;;;11.91;53.41
62800;BME280;48842;51.046;13.796;2023-04-08T12:00:13;101044.31;;;11.86;54.16
62800;BME280;48842;51.046;13.796;2023-04-08T12:02:39;101052.19;;;11.86;53.72
62800;BME280;48842;51.046;13.796;2023-04-08T12:05:05;101049.56;;;11.88;54.34
62800;BME280;48842;51.046;13.796;2023-04-08T12:07:30;101048.72;;;11.89;54.21
62800;BME280;48842;51.046;13.796;2023-04-08T12:09:56;101052.28;;;11.94;54.80
62800;BME280;48842;51.046;13.796;2023-04-08T12:12:21;101046.22;;;12.01;54.32
62800;BME280;48842;51.046;13.796;2023-04-08T12:14:47;101053.34;;;12.13;54.69
62800;BME280;48842;51.046;13.796;2023-04-08T12:17:12;101061.38;;;12.29;54.47
62800;BME280;48842;51.046;13.796;2023-04-08T12:19:37;101054.53;;;12.51;54.50
62800;BME280;48842;51.046;13.796;2023-04-08T12:22:02;101058.19;;;12.73;54.13
62800;BME280;48842;51.046;13.796;2023-04-08T12:24:28;101062.72;;;12.91;53.62
62800;BME280;48842;51.046;13.796;2023-04-08T12:26:53;101061.94;;;13.12;53.16
62800;BME280;48842;51.046;13.796;2023-04-08T12:29:18;101060.31;;;13.36;53.09
62800;BME280;48842;51.046;13.796;2023-04-08T12:31:43;101065.66;;;13.54;52.59
62800;BME280;48842;51.046;13.796;2023-04-08T12:34:09;101068.31;;;13.65;52.04
62800;BME280;48842;51.046;13.796;2023-04-08T12:36:34;101068.34;;;13.68;51.81
62800;BME280;48842;51.046;13.796;2023-04-08T12:39:00;101061.31;;;13.72;51.11
62800;BME280;48842;51.046;13.796;2023-04-08T12:41:25;101066.59;;;13.73;50.74
62800;BME280;48842;51.046;13.796;2023-04-08T12:43:51;101063.97;;;13.83;50.96
62800;BME280;48842;51.046;13.796;2023-04-08T12:46:16;101062.25;;;13.89;50.22
62800;BME280;48842;51.046;13.796;2023-04-08T12:48:41;101061.38;;;13.92;49.76
62800;BME280;48842;51.046;13.796;2023-04-08T12:51:09;101066.66;;;13.89;49.70
62800;BME280;48842;51.046;13.796;2023-04-08T12:53:34;101066.66;;;13.89;49.62
62800;BME280;48842;51.046;13.796;2023-04-08T12:55:59;101058.69;;;13.79;49.53
62800;BME280;48842;51.046;13.796;2023-04-08T12:58:24;101049.94;;;13.79;49.03
62800;BME280;48842;51.046;13.796;2023-04-08T13:00:50;101063.09;;;13.76;49.09
62800;BME280;48842;51.046;13.796;2023-04-08T13:03:15;101059.56;;;13.74;48.93
62800;BME280;48842;51.046;13.796;2023-04-08T13:05:42;101064.81;;;13.72;48.98